createdAt,value
2023-12-11T00:02:03.072Z,7.53
2023-12-11T00:05:06.813Z,6.57
2023-12-11T00:08:11.028Z,7.00
2023-12-11T00:11:14.018Z,9.85
2023-12-11T00:14:16.833Z,9.00
2023-12-11T00:17:19.773Z,8.70
2023-12-11T00:20:22.730Z,11.27
2023-12-11T00:23:27.353Z,12.13
2023-12-11T00:26:30.262Z,8.07
2023-12-11T00:29:33.247Z,8.40
2023-12-11T00:32:36.093Z,10.38
2023-12-11T00:35:39.083Z,7.87
2023-12-11T00:38:43.321Z,11.48
2023-12-11T00:41:46.471Z,11.07
2023-12-11T00:44:49.343Z,10.43
2023-12-11T00:47:52.448Z,10.50
2023-12-11T00:50:55.324Z,9.73
2023-12-11T00:53:59.636Z,11.93
2023-12-11T00:57:02.639Z,7.40
2023-12-11T01:00:06.569Z,9.27
2023-12-11T01:03:09.970Z,10.63
2023-12-11T01:06:12.776Z,9.50
2023-12-11T01:09:17.118Z,6.97
2023-12-11T01:12:20.370Z,6.38
2023-12-11T01:15:23.354Z,10.00
2023-12-11T01:18:27.387Z,10.27
2023-12-11T01:21:30.197Z,9.60
2023-12-11T01:24:34.622Z,8.10
2023-12-11T01:27:37.456Z,10.23
2023-12-11T01:30:40.390Z,9.45
2023-12-11T01:33:43.404Z,8.50
2023-12-11T01:36:46.363Z,7.37
2023-12-11T01:39:50.708Z,6.57
2023-12-11T01:43:04.174Z,7.93
2023-12-11T01:46:16.068Z,7.45
2023-12-11T01:49:20.009Z,5.75
2023-12-11T01:52:24.777Z,7.67
2023-12-11T01:55:30.124Z,6.15
2023-12-11T01:58:33.188Z,7.30
2023-12-11T02:01:37.772Z,7.80
2023-12-11T02:04:41.478Z,5.70
2023-12-11T02:07:45.225Z,7.03
2023-12-11T02:10:51.338Z,7.25
2023-12-11T02:13:54.145Z,6.20
2023-12-11T02:16:57.085Z,6.05
2023-12-11T02:19:59.966Z,8.50
2023-12-11T02:23:07.245Z,6.73
2023-12-11T02:26:13.291Z,6.10
2023-12-11T02:29:16.280Z,7.55
2023-12-11T02:35:45.018Z,6.75
2023-12-11T02:38:48.114Z,6.47
2023-12-11T02:41:52.631Z,9.50
2023-12-11T02:44:55.565Z,7.03
2023-12-11T02:48:03.822Z,7.30
2023-12-11T02:51:07.863Z,8.18
2023-12-11T02:54:10.875Z,9.50
2023-12-11T02:57:15.132Z,8.02
2023-12-11T03:00:18.089Z,7.85
2023-12-11T03:03:20.935Z,7.32
2023-12-11T03:06:23.919Z,11.38
2023-12-11T03:09:26.752Z,7.97
2023-12-11T03:12:31.107Z,14.50
2023-12-11T03:15:37.411Z,6.32
2023-12-11T03:18:40.349Z,6.22
2023-12-11T03:21:43.654Z,6.97
2023-12-11T03:24:47.435Z,7.40
2023-12-11T03:27:51.777Z,5.55
2023-12-11T03:30:54.723Z,10.35
2023-12-11T03:33:57.585Z,6.47
2023-12-11T03:37:00.599Z,9.85
2023-12-11T03:40:04.630Z,8.87
2023-12-11T03:43:09.005Z,9.98
2023-12-11T03:46:11.875Z,9.02
2023-12-11T03:49:17.713Z,6.28
2023-12-11T03:52:20.705Z,9.07
2023-12-11T03:55:24.224Z,7.90
2023-12-11T03:58:28.450Z,10.45
2023-12-11T04:01:31.480Z,7.63
2023-12-11T04:04:34.545Z,8.52
2023-12-11T04:07:37.501Z,10.70
2023-12-11T04:10:40.301Z,7.63
2023-12-11T04:13:45.543Z,8.88
2023-12-11T04:16:48.539Z,9.10
2023-12-11T04:19:51.440Z,13.45
2023-12-11T04:22:54.795Z,10.10
2023-12-11T04:26:00.290Z,8.30
2023-12-11T04:29:04.679Z,7.45
2023-12-11T04:32:08.108Z,7.93
2023-12-11T04:35:11.102Z,12.15
2023-12-11T04:38:14.079Z,7.03
2023-12-11T04:41:16.865Z,9.40
2023-12-11T04:44:21.164Z,13.43
2023-12-11T04:47:24.186Z,7.05
2023-12-11T04:50:26.999Z,10.13
2023-12-11T04:53:29.911Z,8.30
2023-12-11T04:56:32.752Z,8.23
2023-12-11T04:59:37.117Z,8.18
2023-12-11T05:02:40.123Z,8.30
2023-12-11T05:05:42.993Z,13.75
2023-12-11T05:08:45.903Z,10.52
2023-12-11T05:11:49.175Z,9.83
2023-12-11T05:14:53.341Z,9.40
2023-12-11T05:17:56.391Z,7.65
2023-12-11T05:20:59.252Z,6.90
2023-12-11T05:24:02.209Z,8.13
2023-12-11T05:27:05.626Z,8.33
2023-12-11T05:30:11.173Z,6.85
2023-12-11T05:33:14.232Z,9.68
2023-12-11T05:36:17.065Z,6.95
2023-12-11T05:39:19.999Z,9.43
2023-12-11T05:42:22.909Z,10.77
2023-12-11T05:45:27.201Z,10.85
2023-12-11T05:48:30.060Z,10.35
2023-12-11T05:51:32.971Z,7.65
2023-12-11T05:54:36.037Z,12.95
2023-12-11T05:57:38.897Z,8.47
2023-12-11T06:00:43.332Z,10.50
2023-12-11T06:03:47.114Z,8.57
2023-12-11T06:06:49.917Z,10.27
2023-12-11T06:09:52.881Z,9.45
2023-12-11T06:12:55.944Z,9.65
2023-12-11T06:16:00.187Z,6.93
2023-12-11T06:19:03.269Z,16.00
2023-12-11T06:22:06.318Z,9.10
2023-12-11T06:25:10.003Z,9.77
2023-12-11T06:28:12.882Z,7.85
2023-12-11T06:31:17.303Z,6.43
2023-12-11T06:34:20.143Z,9.77
2023-12-11T06:37:23.030Z,5.65
2023-12-11T06:40:26.460Z,7.38
2023-12-11T06:43:29.255Z,11.70
2023-12-11T06:46:33.623Z,7.17
2023-12-11T06:49:38.624Z,8.40
2023-12-11T06:52:41.697Z,13.00
2023-12-11T06:55:44.728Z,11.57
2023-12-11T06:58:47.685Z,8.43
2023-12-11T07:01:52.221Z,7.47
2023-12-11T07:04:55.258Z,12.57
2023-12-11T07:07:58.249Z,11.88
2023-12-11T07:11:01.313Z,9.38
2023-12-11T07:14:04.198Z,12.90
2023-12-11T07:17:09.653Z,9.27
2023-12-11T07:20:13.933Z,10.60
2023-12-11T07:23:17.016Z,10.45
2023-12-11T07:26:20.063Z,10.40
2023-12-11T07:29:23.546Z,10.00
2023-12-11T07:32:27.924Z,13.27
2023-12-11T07:35:30.780Z,8.13
2023-12-11T07:38:33.702Z,9.65
2023-12-11T07:41:38.371Z,9.57
2023-12-11T07:44:41.227Z,6.90
2023-12-11T07:47:45.607Z,9.20
2023-12-11T07:50:48.618Z,8.07
2023-12-11T07:53:51.438Z,9.55
2023-12-11T07:56:54.781Z,10.10
2023-12-11T07:59:57.686Z,6.35
2023-12-11T08:03:02.269Z,8.47
2023-12-11T08:06:05.736Z,7.43
2023-12-11T08:09:12.609Z,7.72
2023-12-11T08:12:17.130Z,9.10
2023-12-11T08:15:20.294Z,7.40
2023-12-11T08:18:24.595Z,6.93
2023-12-11T08:21:29.941Z,4.73
2023-12-11T08:24:33.040Z,6.72
2023-12-11T08:27:36.047Z,8.95
2023-12-11T08:30:38.915Z,6.43
2023-12-11T08:33:43.402Z,7.83
2023-12-11T08:36:46.251Z,8.60
2023-12-11T08:39:51.899Z,6.78
2023-12-11T08:42:55.638Z,6.00
2023-12-11T08:45:58.747Z,7.57
2023-12-11T08:49:03.216Z,4.90
2023-12-11T08:52:08.430Z,7.70
2023-12-11T08:55:11.624Z,8.30
2023-12-11T08:58:15.842Z,11.15
2023-12-11T09:01:19.051Z,7.88
2023-12-11T09:04:23.374Z,5.97
2023-12-11T09:07:28.313Z,7.50
2023-12-11T09:10:31.520Z,8.88
2023-12-11T09:13:37.738Z,7.72
2023-12-11T09:16:40.587Z,9.18
2023-12-11T09:19:54.486Z,8.87
2023-12-11T09:22:58.431Z,10.43
2023-12-11T09:26:06.195Z,8.48
2023-12-11T09:29:10.578Z,9.00
2023-12-11T09:32:13.387Z,7.50
2023-12-11T09:35:17.854Z,7.33
2023-12-11T09:38:22.727Z,7.40
2023-12-11T09:41:25.839Z,5.13
2023-12-11T09:44:34.745Z,6.88
2023-12-11T09:47:41.782Z,6.53
2023-12-11T09:50:46.327Z,6.43
2023-12-11T09:53:50.306Z,6.70
2023-12-11T09:56:57.189Z,8.73
2023-12-11T10:00:00.372Z,6.28
2023-12-11T10:03:09.820Z,8.32
2023-12-11T10:06:17.499Z,5.43
2023-12-11T10:09:30.536Z,4.97
2023-12-11T10:12:41.991Z,6.15
2023-12-11T10:15:45.780Z,9.35
2023-12-11T10:18:54.327Z,8.88
2023-12-11T10:22:04.818Z,6.37
2023-12-11T10:25:08.841Z,8.20
2023-12-11T10:28:16.391Z,9.07
2023-12-11T10:31:19.677Z,7.00
2023-12-11T10:34:44.812Z,5.60
2023-12-11T10:37:49.247Z,8.10
2023-12-11T10:40:52.751Z,9.90
2023-12-11T10:44:08.259Z,8.73
2023-12-11T10:47:20.739Z,5.72
2023-12-11T10:50:23.823Z,7.60
2023-12-11T10:53:30.321Z,6.37
2023-12-11T10:56:36.913Z,5.77
2023-12-11T10:59:43.000Z,4.68
2023-12-11T11:02:49.369Z,5.60
2023-12-11T11:05:53.840Z,6.28
2023-12-11T11:09:09.483Z,8.67
2023-12-11T11:12:22.472Z,6.17
2023-12-11T11:15:26.498Z,5.93
2023-12-11T11:18:30.058Z,8.98
2023-12-11T11:21:33.388Z,6.43
2023-12-11T11:24:39.927Z,9.60
2023-12-11T11:27:45.001Z,6.50
2023-12-11T11:30:52.890Z,10.70
2023-12-11T11:33:58.262Z,8.02
2023-12-11T11:37:01.434Z,6.82
2023-12-11T11:40:11.596Z,5.80
2023-12-11T11:43:15.179Z,6.53
2023-12-11T11:46:18.434Z,10.23
2023-12-11T11:49:32.967Z,8.20
2023-12-11T11:52:42.065Z,5.75
2023-12-11T11:55:46.528Z,7.03
2023-12-11T11:58:57.011Z,7.73
2023-12-11T12:02:00.607Z,6.75
2023-12-11T12:05:11.042Z,8.88
2023-12-11T12:08:15.020Z,6.63
2023-12-11T12:11:19.435Z,7.30
2023-12-11T12:14:32.168Z,6.33
2023-12-11T12:17:35.550Z,7.88
2023-12-11T12:20:40.900Z,5.85
2023-12-11T12:23:43.962Z,6.40
2023-12-11T12:26:50.880Z,5.10
2023-12-11T12:29:56.183Z,6.00
2023-12-11T12:32:59.829Z,5.72
2023-12-11T12:36:05.725Z,6.03
2023-12-11T12:39:11.016Z,4.95
2023-12-11T12:42:16.645Z,4.67
2023-12-11T12:45:35.269Z,5.90
2023-12-11T12:48:40.278Z,7.50
2023-12-11T12:51:51.328Z,6.53
2023-12-11T12:54:56.870Z,5.05
2023-12-11T12:58:01.244Z,5.80
2023-12-11T13:01:04.894Z,5.40
2023-12-11T13:04:11.379Z,7.57
2023-12-11T13:07:17.977Z,7.53
2023-12-11T13:10:27.888Z,7.70
2023-12-11T13:13:32.186Z,5.47
2023-12-11T13:16:35.199Z,6.80
2023-12-11T13:19:43.208Z,4.97
2023-12-11T13:22:46.654Z,7.15
2023-12-11T13:25:51.440Z,7.70
2023-12-11T13:28:55.678Z,4.40
2023-12-11T13:31:59.492Z,6.20
2023-12-11T13:35:02.477Z,7.18
2023-12-11T13:38:05.705Z,5.70
2023-12-11T13:41:08.658Z,5.57
2023-12-11T13:44:13.298Z,7.43
2023-12-11T13:47:16.508Z,5.60
2023-12-11T13:50:19.355Z,9.45
2023-12-11T13:53:23.142Z,8.02
2023-12-11T13:56:26.040Z,7.00
2023-12-11T13:59:35.547Z,4.37
2023-12-11T14:02:59.917Z,5.33
2023-12-11T14:06:01.235Z,6.22
2023-12-11T14:09:04.821Z,5.90
2023-12-11T14:12:08.821Z,5.75
2023-12-11T14:15:13.286Z,6.00
2023-12-11T14:18:16.306Z,7.07
2023-12-11T14:21:19.621Z,5.65
2023-12-11T14:24:22.366Z,8.80
2023-12-11T14:27:25.175Z,8.27
2023-12-11T14:30:29.467Z,5.23
2023-12-11T14:33:32.493Z,6.97
2023-12-11T14:36:35.413Z,5.75
2023-12-11T14:39:38.347Z,8.57
2023-12-11T14:42:41.135Z,7.13
2023-12-11T14:45:45.772Z,7.43
2023-12-11T14:48:48.618Z,4.50
2023-12-11T14:51:51.580Z,5.97
2023-12-11T14:54:54.541Z,7.00
2023-12-11T14:57:59.996Z,5.60
2023-12-11T15:01:05.687Z,7.23
2023-12-11T15:04:08.667Z,6.00
2023-12-11T15:07:12.513Z,4.22
2023-12-11T15:10:16.586Z,7.15
2023-12-11T15:13:19.445Z,6.40
2023-12-11T15:16:26.466Z,6.07
2023-12-11T15:19:29.387Z,6.77
2023-12-11T15:22:37.019Z,6.00
2023-12-11T15:25:39.970Z,8.00
2023-12-11T15:28:44.725Z,7.38
2023-12-11T15:31:48.914Z,8.23
2023-12-11T15:34:52.506Z,6.73
2023-12-11T15:37:55.338Z,7.80
2023-12-11T15:40:58.236Z,5.80
2023-12-11T15:44:01.207Z,7.50
2023-12-11T15:47:07.988Z,7.03
2023-12-11T15:50:14.907Z,7.97
2023-12-11T15:53:17.787Z,6.68
2023-12-11T15:56:21.669Z,6.18
2023-12-11T15:59:24.396Z,6.35
2023-12-11T16:02:29.434Z,8.03
2023-12-11T16:05:37.545Z,6.17
2023-12-11T16:08:40.383Z,6.78
2023-12-11T16:11:45.168Z,7.93
2023-12-11T16:14:51.261Z,7.13
2023-12-11T16:17:55.667Z,8.00
2023-12-11T16:21:00.378Z,8.20
2023-12-11T16:24:03.313Z,7.15
2023-12-11T16:27:06.359Z,8.38
2023-12-11T16:30:11.640Z,4.72
2023-12-11T16:33:15.820Z,12.60
2023-12-11T16:36:19.047Z,8.80
2023-12-11T16:39:25.149Z,12.10
2023-12-11T16:42:29.210Z,9.98
2023-12-11T16:45:33.288Z,7.90
2023-12-11T16:48:38.040Z,7.00
2023-12-11T16:51:41.063Z,6.10
2023-12-11T16:54:50.692Z,6.20
2023-12-11T16:57:53.627Z,5.78
2023-12-11T17:00:56.478Z,6.60
2023-12-11T17:04:06.228Z,7.97
2023-12-11T17:07:10.545Z,5.93
2023-12-11T17:10:15.231Z,6.57
2023-12-11T17:13:18.164Z,7.35
2023-12-11T17:16:20.984Z,7.78
2023-12-11T17:19:25.224Z,6.07
2023-12-11T17:22:28.526Z,7.93
2023-12-11T17:25:33.778Z,8.35
2023-12-11T17:28:36.909Z,5.53
2023-12-11T17:31:40.131Z,7.22
2023-12-11T17:34:44.368Z,9.73
2023-12-11T17:37:47.184Z,7.50
2023-12-11T17:40:49.936Z,8.90
2023-12-11T17:43:55.104Z,7.90
2023-12-11T17:46:58.091Z,7.28
2023-12-11T17:50:04.359Z,6.75
2023-12-11T17:53:15.370Z,6.30
2023-12-11T17:56:18.697Z,6.47
2023-12-11T17:59:21.759Z,7.45
2023-12-11T18:02:24.691Z,4.95
2023-12-11T18:05:29.709Z,5.28
2023-12-11T18:08:32.590Z,6.17
2023-12-11T18:11:35.350Z,5.38
2023-12-11T18:14:38.242Z,4.60
2023-12-11T18:17:41.551Z,4.95
2023-12-11T18:20:45.663Z,4.05
2023-12-11T18:23:48.565Z,6.27
2023-12-11T18:26:51.355Z,16.40
2023-12-11T18:29:54.398Z,9.50
2023-12-11T18:32:57.470Z,4.65
2023-12-11T18:36:01.649Z,4.32
2023-12-11T18:39:04.693Z,3.37
2023-12-11T18:42:07.822Z,3.05
2023-12-11T18:45:11.458Z,3.85
2023-12-11T18:48:16.768Z,3.85
2023-12-11T18:51:28.597Z,4.25
2023-12-11T18:54:31.361Z,4.07
2023-12-11T18:57:34.362Z,3.67
2023-12-11T19:00:37.384Z,4.47
2023-12-11T19:03:40.230Z,4.75
2023-12-11T19:06:44.503Z,5.72
2023-12-11T19:09:47.806Z,5.40
2023-12-11T19:12:53.022Z,5.20
2023-12-11T19:15:56.022Z,4.53
2023-12-11T19:18:58.936Z,3.25
2023-12-11T19:22:03.406Z,4.10
2023-12-11T19:25:07.095Z,3.40
2023-12-11T19:28:09.878Z,3.85
2023-12-11T19:31:12.939Z,3.90
2023-12-11T19:34:16.721Z,4.03
2023-12-11T19:37:21.177Z,2.67
2023-12-11T19:40:24.056Z,2.90
2023-12-11T19:43:26.958Z,2.63
2023-12-11T19:46:29.968Z,3.17
2023-12-11T19:49:32.882Z,2.50
2023-12-11T19:52:37.250Z,2.33
2023-12-11T19:55:40.700Z,3.67
2023-12-11T19:58:43.457Z,4.15
2023-12-11T20:01:46.376Z,3.28
2023-12-11T20:04:49.271Z,2.35
2023-12-11T20:07:53.471Z,2.28
2023-12-11T20:10:56.260Z,3.47
2023-12-11T20:14:00.557Z,2.22
2023-12-11T20:17:04.569Z,2.85
2023-12-11T20:20:09.049Z,6.65
2023-12-11T20:23:13.255Z,6.53
2023-12-11T20:26:18.426Z,3.83
2023-12-11T20:29:21.282Z,3.63
2023-12-11T20:32:25.771Z,3.25
2023-12-11T20:35:34.415Z,2.35
2023-12-11T20:38:38.533Z,2.30
2023-12-11T20:41:41.314Z,2.67
2023-12-11T20:44:44.065Z,2.42
2023-12-11T20:47:49.399Z,3.13
2023-12-11T20:50:52.317Z,3.55
2023-12-11T20:53:56.419Z,2.60
2023-12-11T20:56:59.445Z,3.13
2023-12-11T21:00:06.840Z,2.90
2023-12-11T21:03:09.627Z,2.58
2023-12-11T21:06:12.374Z,3.97
2023-12-11T21:09:18.351Z,3.45
2023-12-11T21:12:21.293Z,2.67
2023-12-11T21:15:26.070Z,4.15
2023-12-11T21:18:30.460Z,2.05
2023-12-11T21:21:33.503Z,3.08
2023-12-11T21:24:37.822Z,3.55
2023-12-11T21:27:40.725Z,2.93
2023-12-11T21:30:43.824Z,2.13
2023-12-11T21:33:46.784Z,2.95
2023-12-11T21:36:49.734Z,3.55
2023-12-11T21:39:54.034Z,3.92
2023-12-11T21:42:56.799Z,4.53
2023-12-11T21:45:59.750Z,2.75
2023-12-11T21:49:03.311Z,4.03
2023-12-11T21:52:06.973Z,2.63
2023-12-11T21:55:13.942Z,3.17
2023-12-11T21:58:16.786Z,5.93
2023-12-11T22:01:19.804Z,2.50
2023-12-11T22:04:22.798Z,2.95
2023-12-11T22:07:25.805Z,2.33
2023-12-11T22:10:30.080Z,2.20
2023-12-11T22:13:33.135Z,1.73
2023-12-11T22:16:39.577Z,2.30
2023-12-11T22:19:42.664Z,2.20
2023-12-11T22:23:10.406Z,3.08
2023-12-11T22:26:14.639Z,2.53
2023-12-11T22:29:17.531Z,2.30
2023-12-11T22:32:20.442Z,1.83
2023-12-11T22:35:23.189Z,2.20
2023-12-11T22:38:26.002Z,4.13
2023-12-11T22:41:31.376Z,3.15
2023-12-11T22:44:34.268Z,3.23
2023-12-11T22:47:37.199Z,2.72
2023-12-11T22:50:39.990Z,2.50
2023-12-11T22:53:42.902Z,3.07
2023-12-11T22:56:46.970Z,2.85
2023-12-11T22:59:49.888Z,2.40
2023-12-11T23:02:52.795Z,2.42
2023-12-11T23:05:57.986Z,2.88
2023-12-11T23:09:00.922Z,2.57
2023-12-11T23:12:05.808Z,3.35
2023-12-11T23:15:10.149Z,2.78
2023-12-11T23:18:13.317Z,2.90
2023-12-11T23:21:19.711Z,4.55
2023-12-11T23:24:22.605Z,3.23
2023-12-11T23:27:26.966Z,3.63
2023-12-11T23:30:29.745Z,3.53
2023-12-11T23:33:32.739Z,2.85
2023-12-11T23:36:35.575Z,4.30
2023-12-11T23:39:38.625Z,3.43
2023-12-11T23:42:42.856Z,4.18
2023-12-11T23:45:45.722Z,4.18
2023-12-11T23:48:48.602Z,4.15
2023-12-11T23:51:51.698Z,4.07
2023-12-11T23:54:54.652Z,3.60
2023-12-11T23:57:59.176Z,3.20
